createdAt,value
2022-08-24T00:02:12.387Z,97368.72
2022-08-24T00:04:38.932Z,97365.94
2022-08-24T00:07:21.475Z,97372.94
2022-08-24T00:09:54.077Z,97366.09
2022-08-24T00:12:20.542Z,97366.19
2022-08-24T00:14:47.009Z,97369.97
2022-08-24T00:17:15.887Z,97360.81
2022-08-24T00:19:42.513Z,97362.31
2022-08-24T00:22:10.069Z,97366.38
2022-08-24T00:24:36.589Z,97361.25
2022-08-24T00:27:03.139Z,97361.56
2022-08-24T00:29:29.756Z,97363.38
2022-08-24T00:31:56.249Z,97362.94
2022-08-24T00:34:22.783Z,97361.31
2022-08-24T00:36:49.203Z,97364.25
2022-08-24T00:39:15.672Z,97364.72
2022-08-24T00:41:43.129Z,97363.19
2022-08-24T00:44:10.336Z,97370.00
2022-08-24T00:46:49.680Z,97365.31
2022-08-24T00:49:25.552Z,97363.47
2022-08-24T00:51:57.047Z,97365.78
2022-08-24T00:54:23.659Z,97371.09
2022-08-24T00:56:51.644Z,97375.19
2022-08-24T00:59:20.029Z,97363.69
2022-08-24T01:01:47.476Z,97375.25
2022-08-24T01:04:16.693Z,97371.47
2022-08-24T01:06:43.138Z,97369.09
2022-08-24T01:09:09.611Z,97372.19
2022-08-24T01:11:36.859Z,97372.28
2022-08-24T01:14:03.745Z,97363.38
2022-08-24T01:16:49.016Z,97374.53
2022-08-24T01:19:24.934Z,97365.72
2022-08-24T01:21:54.883Z,97365.25
2022-08-24T01:24:21.359Z,97369.78
2022-08-24T01:26:49.253Z,97372.66
2022-08-24T01:29:20.223Z,97373.25
2022-08-24T01:31:50.346Z,97367.19
2022-08-24T01:34:16.883Z,97363.13
2022-08-24T01:36:51.380Z,97368.06
2022-08-24T01:39:21.156Z,97356.81
2022-08-24T01:41:47.990Z,97357.84
2022-08-24T01:44:14.746Z,97353.56
2022-08-24T01:46:45.022Z,97359.09
2022-08-24T01:49:12.076Z,97354.38
2022-08-24T01:51:38.608Z,97356.66
2022-08-24T01:54:05.783Z,97357.25
2022-08-24T01:56:33.070Z,97361.56
2022-08-24T01:58:59.995Z,97359.50
2022-08-24T02:01:27.041Z,97362.59
2022-08-24T02:03:53.516Z,97361.59
2022-08-24T02:06:19.971Z,97362.69
2022-08-24T02:08:46.409Z,97365.22
2022-08-24T02:11:12.885Z,97369.31
2022-08-24T02:13:39.798Z,97367.91
2022-08-24T02:16:07.117Z,97367.75
2022-08-24T02:18:34.278Z,97367.38
2022-08-24T02:21:00.955Z,97361.25
2022-08-24T02:23:28.764Z,97363.13
2022-08-24T02:25:56.112Z,97367.63
2022-08-24T02:28:22.579Z,97361.09
2022-08-24T02:30:49.230Z,97364.03
2022-08-24T02:33:15.720Z,97368.13
2022-08-24T02:35:42.279Z,97368.53
2022-08-24T02:38:09.994Z,97375.56
2022-08-24T02:40:36.500Z,97365.72
2022-08-24T02:43:03.203Z,97369.41
2022-08-24T02:45:29.805Z,97371.63
2022-08-24T02:47:56.296Z,97371.09
2022-08-24T02:50:22.861Z,97374.59
2022-08-24T02:52:49.286Z,97369.53
2022-08-24T02:55:20.172Z,97372.84
2022-08-24T02:57:47.905Z,97369.63
2022-08-24T03:00:15.421Z,97377.84
2022-08-24T03:02:41.894Z,97372.50
2022-08-24T03:05:08.972Z,97370.28
2022-08-24T03:07:35.446Z,97374.34
2022-08-24T03:10:02.075Z,97376.63
2022-08-24T03:12:28.500Z,97371.34
2022-08-24T03:14:55.433Z,97376.28
2022-08-24T03:17:23.438Z,97369.72
2022-08-24T03:19:50.469Z,97370.38
2022-08-24T03:22:17.222Z,97370.56
2022-08-24T03:24:45.117Z,97373.44
2022-08-24T03:27:14.107Z,97376.75
2022-08-24T03:29:40.919Z,97381.25
2022-08-24T03:32:08.191Z,97366.31
2022-08-24T03:34:34.720Z,97366.91
2022-08-24T03:37:01.163Z,97373.06
2022-08-24T03:39:27.640Z,97363.44
2022-08-24T03:41:54.062Z,97355.53
2022-08-24T03:44:23.212Z,97367.78
2022-08-24T03:46:49.832Z,97370.66
2022-08-24T03:49:16.303Z,97370.47
2022-08-24T03:51:42.762Z,97369.22
2022-08-24T03:54:09.536Z,97375.56
2022-08-24T03:56:36.053Z,97365.75
2022-08-24T03:59:02.502Z,97370.66
2022-08-24T04:01:28.997Z,97373.53
2022-08-24T04:03:55.810Z,97369.19
2022-08-24T04:06:22.724Z,97379.00
2022-08-24T04:08:49.237Z,97375.97
2022-08-24T04:11:17.890Z,97381.28
2022-08-24T04:13:44.540Z,97384.13
2022-08-24T04:16:12.963Z,97377.41
2022-08-24T04:18:39.800Z,97378.81
2022-08-24T04:21:06.435Z,97382.13
2022-08-24T04:23:47.293Z,97371.88
2022-08-24T04:26:14.801Z,97381.28
2022-08-24T04:28:41.384Z,97380.06
2022-08-24T04:31:08.025Z,97389.06
2022-08-24T04:33:34.502Z,97390.69
2022-08-24T04:36:01.021Z,97390.47
2022-08-24T04:38:27.452Z,97392.72
2022-08-24T04:40:54.062Z,97392.72
2022-08-24T04:43:20.470Z,97392.31
2022-08-24T04:45:48.070Z,97390.28
2022-08-24T04:48:14.685Z,97389.47
2022-08-24T04:50:41.817Z,97394.56
2022-08-24T04:53:08.629Z,97392.34
2022-08-24T04:55:41.044Z,97389.28
2022-08-24T04:58:07.472Z,97391.50
2022-08-24T05:00:33.945Z,97391.91
2022-08-24T05:03:00.486Z,97394.97
2022-08-24T05:05:27.003Z,97397.25
2022-08-24T05:07:56.446Z,97401.72
2022-08-24T05:10:23.362Z,97396.41
2022-08-24T05:12:49.771Z,97405.00
2022-08-24T05:15:16.414Z,97402.56
2022-08-24T05:17:50.346Z,97405.00
2022-08-24T05:20:17.947Z,97395.19
2022-08-24T05:22:45.021Z,97402.75
2022-08-24T05:25:11.490Z,97404.16
2022-08-24T05:27:37.953Z,97404.34
2022-08-24T05:30:04.979Z,97399.63
2022-08-24T05:32:31.457Z,97407.00
2022-08-24T05:34:59.695Z,97403.69
2022-08-24T05:37:26.638Z,97404.91
2022-08-24T05:39:53.154Z,97404.88
2022-08-24T05:42:19.828Z,97401.97
2022-08-24T05:44:46.319Z,97406.28
2022-08-24T05:47:13.579Z,97412.53
2022-08-24T05:49:41.703Z,97417.44
2022-08-24T05:52:08.867Z,97414.91
2022-08-24T05:54:35.480Z,97422.59
2022-08-24T05:57:05.064Z,97424.19
2022-08-24T05:59:31.923Z,97426.56
2022-08-24T06:01:58.554Z,97417.59
2022-08-24T06:04:25.835Z,97413.97
2022-08-24T06:06:52.880Z,97420.69
2022-08-24T06:09:19.358Z,97424.91
2022-08-24T06:11:46.910Z,97423.72
2022-08-24T06:14:14.427Z,97421.28
2022-08-24T06:16:41.783Z,97422.88
2022-08-24T06:19:09.384Z,97419.88
2022-08-24T06:21:36.242Z,97426.19
2022-08-24T06:24:02.758Z,97423.09
2022-08-24T06:26:50.106Z,97421.97
2022-08-24T06:29:17.357Z,97431.09
2022-08-24T06:31:44.542Z,97434.03
2022-08-24T06:34:14.041Z,97426.31
2022-08-24T06:36:40.618Z,97438.84
2022-08-24T06:39:07.854Z,97430.91
2022-08-24T06:41:37.046Z,97433.72
2022-08-24T06:44:03.477Z,97436.66
2022-08-24T06:46:32.884Z,97430.44
2022-08-24T06:48:59.764Z,97431.47
2022-08-24T06:51:26.236Z,97439.41
2022-08-24T06:53:54.524Z,97424.94
2022-08-24T06:56:20.972Z,97428.13
2022-08-24T06:58:47.971Z,97435.78
2022-08-24T07:01:15.888Z,97439.94
2022-08-24T07:03:42.615Z,97443.09
2022-08-24T07:06:09.345Z,97438.47
2022-08-24T07:08:36.256Z,97439.53
2022-08-24T07:11:03.089Z,97452.72
2022-08-24T07:13:31.158Z,97448.34
2022-08-24T07:15:57.883Z,97440.91
2022-08-24T07:18:24.822Z,97445.38
2022-08-24T07:20:53.466Z,97456.59
2022-08-24T07:23:20.247Z,97451.59
2022-08-24T07:25:49.703Z,97458.16
2022-08-24T07:28:17.021Z,97448.25
2022-08-24T07:30:54.083Z,97454.44
2022-08-24T07:33:20.561Z,97460.81
2022-08-24T07:35:47.221Z,97461.44
2022-08-24T07:38:13.756Z,97457.16
2022-08-24T07:41:05.158Z,97457.25
2022-08-24T07:43:26.690Z,97454.56
2022-08-24T07:45:53.212Z,97448.72
2022-08-24T07:48:19.655Z,97453.38
2022-08-24T07:50:46.479Z,97455.31
2022-08-24T07:53:15.149Z,97447.16
2022-08-24T07:55:52.079Z,97454.47
2022-08-24T07:58:18.847Z,97453.94
2022-08-24T08:00:48.525Z,97457.97
2022-08-24T08:03:15.014Z,97456.34
2022-08-24T08:05:41.655Z,97457.97
2022-08-24T08:08:08.143Z,97466.59
2022-08-24T08:10:36.214Z,97464.44
2022-08-24T08:13:03.541Z,97460.66
2022-08-24T08:15:31.121Z,97466.59
2022-08-24T08:17:57.967Z,97471.38
2022-08-24T08:20:24.539Z,97465.94
2022-08-24T08:23:09.739Z,97469.09
2022-08-24T08:25:38.376Z,97468.22
2022-08-24T08:28:18.455Z,97464.94
2022-08-24T08:30:53.676Z,97470.19
2022-08-24T08:33:20.392Z,97473.13
2022-08-24T08:35:47.092Z,97474.19
2022-08-24T08:38:13.567Z,97469.84
2022-08-24T08:40:55.421Z,97470.88
2022-08-24T08:43:42.535Z,97461.72
2022-08-24T08:46:13.437Z,97462.69
2022-08-24T08:48:42.868Z,97463.84
2022-08-24T08:51:28.308Z,97460.91
2022-08-24T08:54:07.114Z,97461.72
2022-08-24T08:56:45.866Z,97463.78
2022-08-24T08:59:31.041Z,97459.38
2022-08-24T09:02:07.413Z,97464.88
2022-08-24T09:04:50.654Z,97475.41
2022-08-24T09:07:20.236Z,97463.59
2022-08-24T09:10:05.088Z,97462.28
2022-08-24T09:12:36.065Z,97463.69
2022-08-24T09:15:38.035Z,97461.34
2022-08-24T09:18:11.078Z,97464.78
2022-08-24T09:20:41.411Z,97463.88
2022-08-24T09:23:40.696Z,97457.50
2022-08-24T09:26:19.090Z,97460.72
2022-08-24T09:29:02.080Z,97459.16
2022-08-24T09:34:07.930Z,97456.16
2022-08-24T09:36:46.761Z,97458.97
2022-08-24T09:39:14.421Z,97454.28
2022-08-24T09:41:59.182Z,97450.91
2022-08-24T09:44:58.449Z,97451.75
2022-08-24T09:47:44.204Z,97448.16
2022-08-24T09:50:13.671Z,97451.91
2022-08-24T09:52:47.395Z,97451.34
2022-08-24T09:55:32.263Z,97444.34
2022-08-24T09:58:07.967Z,97438.56
2022-08-24T10:00:38.074Z,97437.16
2022-08-24T10:03:35.008Z,97442.34
2022-08-24T10:06:16.723Z,97443.41
2022-08-24T10:08:53.785Z,97433.53
2022-08-24T10:11:33.182Z,97428.25
2022-08-24T10:14:08.742Z,97422.56
2022-08-24T10:16:41.257Z,97427.00
2022-08-24T10:19:12.875Z,97431.88
2022-08-24T10:21:58.015Z,97426.41
2022-08-24T10:24:27.916Z,97424.59
2022-08-24T10:27:05.555Z,97416.75
2022-08-24T10:29:31.990Z,97411.81
2022-08-24T10:32:17.161Z,97412.97
2022-08-24T10:34:46.725Z,97410.66
2022-08-24T10:37:19.237Z,97410.69
2022-08-24T10:40:02.804Z,97405.75
2022-08-24T10:43:08.598Z,97406.94
2022-08-24T10:45:41.625Z,97402.06
2022-08-24T10:48:08.095Z,97399.53
2022-08-24T10:50:54.832Z,97395.91
2022-08-24T10:53:21.528Z,97394.72
2022-08-24T10:55:50.738Z,97401.38
2022-08-24T10:58:26.531Z,97392.50
2022-08-24T11:00:53.183Z,97394.72
2022-08-24T11:03:28.666Z,97389.94
2022-08-24T11:05:55.825Z,97383.66
2022-08-24T11:08:23.584Z,97394.81
2022-08-24T11:11:06.813Z,97390.22
2022-08-24T11:13:33.444Z,97392.84
2022-08-24T11:16:01.203Z,97395.91
2022-08-24T11:18:57.310Z,97389.47
2022-08-24T11:21:33.170Z,97385.84
2022-08-24T11:24:25.834Z,97391.97
2022-08-24T11:26:58.567Z,97380.47
2022-08-24T11:29:31.381Z,97386.97
2022-08-24T11:31:58.991Z,97376.75
2022-08-24T11:34:34.112Z,97386.44
2022-08-24T11:37:00.593Z,97382.44
2022-08-24T11:39:37.076Z,97385.84
2022-08-24T11:42:07.859Z,97381.91
2022-08-24T11:44:37.359Z,97382.41
2022-08-24T11:47:08.868Z,97378.66
2022-08-24T11:49:35.416Z,97381.31
2022-08-24T11:52:11.014Z,97375.63
2022-08-24T11:54:55.851Z,97380.16
2022-08-24T11:57:26.656Z,97383.53
2022-08-24T11:59:53.145Z,97380.72
2022-08-24T12:02:38.591Z,97380.56
2022-08-24T12:05:07.284Z,97376.03
2022-08-24T12:07:51.766Z,97376.03
2022-08-24T12:10:37.266Z,97371.63
2022-08-24T12:13:09.335Z,97367.63
2022-08-24T12:15:35.809Z,97365.19
2022-08-24T12:18:24.807Z,97371.38
2022-08-24T12:20:51.797Z,97360.03
2022-08-24T12:23:30.949Z,97365.97
2022-08-24T12:26:02.857Z,97366.22
2022-08-24T12:28:32.097Z,97371.06
2022-08-24T12:30:59.881Z,97363.50
2022-08-24T12:33:28.248Z,97362.19
2022-08-24T12:35:55.805Z,97364.25
2022-08-24T12:38:28.514Z,97365.00
2022-08-24T12:40:54.922Z,97365.78
2022-08-24T12:43:23.743Z,97358.28
2022-08-24T12:45:50.253Z,97362.19
2022-08-24T12:48:17.415Z,97358.75
2022-08-24T12:50:52.746Z,97365.72
2022-08-24T12:53:38.025Z,97360.94
2022-08-24T12:56:23.699Z,97359.13
2022-08-24T12:58:54.551Z,97352.22
2022-08-24T13:01:25.533Z,97349.25
2022-08-24T13:04:03.313Z,97349.06
2022-08-24T13:06:47.032Z,97353.53
2022-08-24T13:09:36.947Z,97352.16
2022-08-24T13:12:24.368Z,97342.47
2022-08-24T13:14:57.472Z,97346.41
2022-08-24T13:17:25.326Z,97343.31
2022-08-24T13:20:11.723Z,97341.56
2022-08-24T13:22:40.525Z,97339.41
2022-08-24T13:25:24.043Z,97333.97
2022-08-24T13:28:01.068Z,97334.03
2022-08-24T13:30:29.482Z,97341.47
2022-08-24T13:32:58.863Z,97335.28
2022-08-24T13:35:53.623Z,97338.72
2022-08-24T13:38:35.346Z,97334.03
2022-08-24T13:41:07.835Z,97332.84
2022-08-24T13:43:52.963Z,97333.41
2022-08-24T13:46:33.051Z,97331.13
2022-08-24T13:49:04.424Z,97337.00
2022-08-24T13:51:52.306Z,97334.97
2022-08-24T13:54:27.311Z,97331.41
2022-08-24T13:57:08.396Z,97332.66
2022-08-24T13:59:52.795Z,97323.84
2022-08-24T14:02:44.613Z,97331.34
2022-08-24T14:05:29.900Z,97331.94
2022-08-24T14:07:59.302Z,97334.47
2022-08-24T14:10:31.833Z,97333.63
2022-08-24T14:13:04.350Z,97331.88
2022-08-24T14:15:45.391Z,97332.81
2022-08-24T14:18:14.907Z,97331.59
2022-08-24T14:20:51.777Z,97330.59
2022-08-24T14:23:18.224Z,97321.84
2022-08-24T14:25:44.826Z,97325.00
2022-08-24T14:28:30.044Z,97322.13
2022-08-24T14:31:18.149Z,97328.19
2022-08-24T14:33:51.143Z,97327.09
2022-08-24T14:36:21.402Z,97318.50
2022-08-24T14:39:04.583Z,97327.56
2022-08-24T14:41:33.978Z,97317.22
2022-08-24T14:44:20.712Z,97320.09
2022-08-24T14:46:52.272Z,97318.81
2022-08-24T14:49:18.793Z,97315.34
2022-08-24T14:51:51.519Z,97318.66
2022-08-24T14:54:17.973Z,97314.59
2022-08-24T14:56:44.411Z,97325.53
2022-08-24T14:59:29.600Z,97320.69
2022-08-24T15:02:15.761Z,97315.16
2022-08-24T15:04:46.611Z,97318.06
2022-08-24T15:07:32.318Z,97313.31
2022-08-24T15:10:00.363Z,97316.19
2022-08-24T15:12:32.804Z,97304.16
2022-08-24T15:15:05.298Z,97307.53
2022-08-24T15:17:36.422Z,97306.81
2022-08-24T15:20:07.559Z,97302.09
2022-08-24T15:22:37.946Z,97301.91
2022-08-24T15:25:07.073Z,97297.91
2022-08-24T15:27:48.647Z,97299.34
2022-08-24T15:30:23.613Z,97296.31
2022-08-24T15:33:06.335Z,97296.06
2022-08-24T15:35:34.399Z,97298.34
2022-08-24T15:38:21.272Z,97291.19
2022-08-24T15:41:06.188Z,97293.13
2022-08-24T15:43:33.600Z,97294.44
2022-08-24T15:46:00.098Z,97289.81
2022-08-24T15:48:26.623Z,97295.09
2022-08-24T15:50:53.687Z,97293.16
2022-08-24T15:53:40.143Z,97298.13
2022-08-24T15:56:21.984Z,97290.53
2022-08-24T15:58:48.686Z,97297.16
2022-08-24T16:01:33.948Z,97299.28
2022-08-24T16:04:03.538Z,97290.91
2022-08-24T16:06:33.027Z,97291.22
2022-08-24T16:09:01.358Z,97297.16
2022-08-24T16:11:48.005Z,97298.63
2022-08-24T16:14:25.317Z,97299.91
2022-08-24T16:16:54.542Z,97296.88
2022-08-24T16:19:25.486Z,97294.09
2022-08-24T16:21:54.614Z,97290.25
2022-08-24T16:24:21.236Z,97286.09
2022-08-24T16:26:47.661Z,97292.84
2022-08-24T16:29:32.883Z,97295.97
2022-08-24T16:32:09.281Z,97292.97
2022-08-24T16:34:37.130Z,97294.72
2022-08-24T16:37:04.112Z,97285.66
2022-08-24T16:39:30.756Z,97284.13
2022-08-24T16:41:58.661Z,97286.22
2022-08-24T16:44:28.065Z,97289.09
2022-08-24T16:46:54.472Z,97298.84
2022-08-24T16:49:20.919Z,97283.03
2022-08-24T16:51:47.417Z,97289.06
2022-08-24T16:54:13.923Z,97290.94
2022-08-24T16:56:40.734Z,97288.56
2022-08-24T16:59:07.152Z,97285.56
2022-08-24T17:01:33.743Z,97296.50
2022-08-24T17:04:00.361Z,97298.84
2022-08-24T17:06:26.826Z,97298.53
2022-08-24T17:08:53.659Z,97296.75
2022-08-24T17:11:20.134Z,97298.13
2022-08-24T17:13:50.358Z,97289.69
2022-08-24T17:16:17.342Z,97301.00
2022-08-24T17:18:43.870Z,97290.03
2022-08-24T17:21:10.343Z,97298.19
2022-08-24T17:23:36.806Z,97293.38
2022-08-24T17:26:03.736Z,97293.28
2022-08-24T17:28:30.510Z,97300.25
2022-08-24T17:30:57.012Z,97306.09
2022-08-24T17:33:23.645Z,97300.88
2022-08-24T17:35:50.702Z,97304.84
2022-08-24T17:38:17.123Z,97307.28
2022-08-24T17:40:43.569Z,97312.31
2022-08-24T17:43:10.580Z,97306.88
2022-08-24T17:45:37.234Z,97313.19
2022-08-24T17:48:03.818Z,97317.91
2022-08-24T17:50:30.371Z,97317.22
2022-08-24T17:53:00.230Z,97324.47
2022-08-24T17:55:27.088Z,97323.13
2022-08-24T17:57:53.653Z,97324.41
2022-08-24T18:00:20.122Z,97318.13
2022-08-24T18:02:46.612Z,97319.72
2022-08-24T18:05:15.016Z,97330.03
2022-08-24T18:07:53.060Z,97328.16
2022-08-24T18:10:21.029Z,97326.69
2022-08-24T18:12:47.678Z,97334.50
2022-08-24T18:15:14.115Z,97336.16
2022-08-24T18:17:41.825Z,97335.50
2022-08-24T18:20:08.980Z,97327.84
2022-08-24T18:22:35.606Z,97338.22
2022-08-24T18:25:02.170Z,97334.72
2022-08-24T18:27:29.259Z,97344.25
2022-08-24T18:30:01.317Z,97346.00
2022-08-24T18:32:31.134Z,97345.78
2022-08-24T18:34:57.847Z,97351.50
2022-08-24T18:37:24.333Z,97355.59
2022-08-24T18:39:51.077Z,97360.47
2022-08-24T18:42:17.521Z,97365.59
2022-08-24T18:44:43.992Z,97369.72
2022-08-24T18:47:10.511Z,97365.41
2022-08-24T18:49:37.579Z,97377.00
2022-08-24T18:52:04.285Z,97376.47
2022-08-24T18:54:35.628Z,97378.63
2022-08-24T18:57:02.361Z,97380.25
2022-08-24T18:59:28.823Z,97382.91
2022-08-24T19:02:21.634Z,97382.13
2022-08-24T19:04:48.150Z,97390.97
2022-08-24T19:07:14.952Z,97384.75
2022-08-24T19:09:41.386Z,97390.91
2022-08-24T19:12:08.579Z,97385.47
2022-08-24T19:14:35.234Z,97384.91
2022-08-24T19:17:01.693Z,97384.34
2022-08-24T19:19:28.170Z,97392.13
2022-08-24T19:21:54.635Z,97380.00
2022-08-24T19:24:22.597Z,97395.56
2022-08-24T19:26:49.013Z,97389.06
2022-08-24T19:29:21.469Z,97386.28
2022-08-24T19:31:59.879Z,97396.69
2022-08-24T19:34:26.410Z,97393.41
2022-08-24T19:36:56.149Z,97396.00
2022-08-24T19:39:22.884Z,97395.69
2022-08-24T19:41:58.327Z,97396.94
2022-08-24T19:44:47.726Z,97397.72
2022-08-24T19:47:18.375Z,97392.28
2022-08-24T19:49:45.660Z,97402.09
2022-08-24T19:52:12.150Z,97402.91
2022-08-24T19:54:42.102Z,97402.91
2022-08-24T19:57:27.407Z,97400.38
2022-08-24T19:59:53.845Z,97398.38
2022-08-24T20:02:20.327Z,97400.69
2022-08-24T20:04:46.803Z,97406.78
2022-08-24T20:07:14.639Z,97403.53
2022-08-24T20:09:41.038Z,97402.41
2022-08-24T20:12:07.612Z,97406.97
2022-08-24T20:14:37.329Z,97416.91
2022-08-24T20:17:04.231Z,97410.44
2022-08-24T20:19:31.423Z,97410.94
2022-08-24T20:21:57.930Z,97411.94
2022-08-24T20:24:27.455Z,97414.00
2022-08-24T20:26:53.913Z,97416.38
2022-08-24T20:29:20.885Z,97416.63
2022-08-24T20:31:48.534Z,97418.16
2022-08-24T20:34:17.170Z,97417.84
2022-08-24T20:36:45.025Z,97412.16
2022-08-24T20:39:11.921Z,97415.28
2022-08-24T20:41:39.069Z,97421.97
2022-08-24T20:44:05.490Z,97430.75
2022-08-24T20:46:32.162Z,97423.19
2022-08-24T20:48:59.030Z,97427.19
2022-08-24T20:51:25.671Z,97423.63
2022-08-24T20:53:52.106Z,97424.63
2022-08-24T20:56:28.719Z,97425.09
2022-08-24T20:58:57.883Z,97423.97
2022-08-24T21:01:24.890Z,97428.78
2022-08-24T21:03:51.747Z,97423.41
2022-08-24T21:06:18.300Z,97424.91
2022-08-24T21:08:45.116Z,97430.34
2022-08-24T21:11:11.639Z,97422.03
2022-08-24T21:13:38.045Z,97428.53
2022-08-24T21:16:05.902Z,97430.72
2022-08-24T21:18:33.096Z,97436.81
2022-08-24T21:21:03.797Z,97433.72
2022-08-24T21:23:31.621Z,97437.13
2022-08-24T21:25:58.589Z,97438.19
2022-08-24T21:28:25.017Z,97435.38
2022-08-24T21:30:51.424Z,97440.81
2022-08-24T21:33:36.605Z,97445.84
2022-08-24T21:36:03.235Z,97441.09
2022-08-24T21:38:31.337Z,97446.94
2022-08-24T21:40:59.882Z,97438.66
2022-08-24T21:43:26.373Z,97442.63
2022-08-24T21:45:52.792Z,97440.44
2022-08-24T21:48:19.402Z,97444.38
2022-08-24T21:50:45.865Z,97444.03
2022-08-24T21:53:12.314Z,97444.03
2022-08-24T21:55:41.301Z,97441.72
2022-08-24T21:58:08.149Z,97443.78
2022-08-24T22:00:35.659Z,97441.00
2022-08-24T22:03:03.530Z,97445.22
2022-08-24T22:05:30.530Z,97444.06
2022-08-24T22:07:57.178Z,97444.41
2022-08-24T22:10:23.793Z,97446.50
2022-08-24T22:12:51.078Z,97443.19
2022-08-24T22:15:18.622Z,97445.75
2022-08-24T22:17:52.607Z,97442.97
2022-08-24T22:20:21.647Z,97445.16
2022-08-24T22:22:49.942Z,97445.41
2022-08-24T22:25:16.379Z,97438.78
2022-08-24T22:27:43.198Z,97437.41
2022-08-24T22:30:10.528Z,97436.94
2022-08-24T22:32:36.987Z,97437.97
2022-08-24T22:35:03.570Z,97440.53
2022-08-24T22:37:30.029Z,97439.13
2022-08-24T22:39:56.575Z,97435.06
2022-08-24T22:42:23.055Z,97433.78
2022-08-24T22:44:49.566Z,97432.41
2022-08-24T22:47:16.155Z,97426.81
2022-08-24T22:49:45.561Z,97436.38
2022-08-24T22:52:13.012Z,97442.44
2022-08-24T22:54:39.938Z,97445.19
2022-08-24T22:57:06.358Z,97441.94
2022-08-24T22:59:35.692Z,97441.13
2022-08-24T23:02:03.432Z,97447.31
2022-08-24T23:04:32.113Z,97443.22
2022-08-24T23:06:58.753Z,97438.81
2022-08-24T23:09:25.218Z,97441.50
2022-08-24T23:11:54.555Z,97443.84
2022-08-24T23:14:21.248Z,97440.91
2022-08-24T23:16:48.682Z,97438.81
2022-08-24T23:19:35.362Z,97436.00
2022-08-24T23:22:02.011Z,97437.06
2022-08-24T23:24:29.558Z,97439.72
2022-08-24T23:26:56.172Z,97439.72
2022-08-24T23:29:22.652Z,97431.72
2022-08-24T23:31:49.119Z,97428.09
2022-08-24T23:34:15.891Z,97431.56
2022-08-24T23:36:42.745Z,97436.34
2022-08-24T23:39:09.467Z,97432.50
2022-08-24T23:41:38.191Z,97425.53
2022-08-24T23:44:05.985Z,97426.00
2022-08-24T23:46:32.470Z,97428.09
2022-08-24T23:49:03.291Z,97422.84
2022-08-24T23:51:30.407Z,97421.44
2022-08-24T23:53:57.127Z,97417.97
2022-08-24T23:56:31.942Z,97419.72
2022-08-24T23:58:59.459Z,97417.63
